Time;durP1;ratioP1;P1;durP2;ratioP2;P2;SDS_P1;SDS_P2;PMS_P1;PMS_P2;Temp;Humidity;BMP_temperature;BMP_pressure;BME280_temperature;BME280_humidity;BME280_pressure;Samples;Min_cycle;Max_cycle;Signal;HPM_P1;HPM_P2
2021/12/18 00:01:29;;;;;;;3.20;1.38;;;;;;;9.27;100.00;103116.75;5006136;28;20034;-67
2021/12/18 00:03:55;;;;;;;4.75;1.67;;;;;;;9.26;100.00;103120.53;5003419;28;20410;-67
2021/12/18 00:06:21;;;;;;;2.90;1.33;;;;;;;9.20;100.00;103114.41;4994749;28;20397;-67
2021/12/18 00:08:47;;;;;;;2.38;0.90;;;;;;;9.32;100.00;103122.06;5012314;28;20504;-66
2021/12/18 00:11:13;;;;;;;1.58;0.77;;;;;;;9.26;100.00;103123.22;4999460;28;20031;-67
2021/12/18 00:13:39;;;;;;;1.27;0.80;;;;;;;9.17;100.00;103123.03;4996123;28;20478;-66
2021/12/18 00:16:06;;;;;;;1.55;0.85;;;;;;;9.24;100.00;103120.00;5002775;28;20537;-66
2021/12/18 00:18:31;;;;;;;0.88;0.50;;;;;;;9.16;100.00;103126.81;4992806;28;20730;-66
2021/12/18 00:21:00;;;;;;;2.92;0.68;;;;;;;9.15;100.00;103124.41;5006473;28;20041;-67
2021/12/18 00:23:26;;;;;;;1.85;0.88;;;;;;;9.18;100.00;103121.13;5008925;28;20149;-67
2021/12/18 00:25:52;;;;;;;1.65;0.93;;;;;;;9.15;100.00;103110.97;5010734;28;20037;-66
2021/12/18 00:28:17;;;;;;;4.03;0.85;;;;;;;9.07;100.00;103115.88;5010678;28;20518;-67
2021/12/18 00:30:43;;;;;;;2.40;1.20;;;;;;;9.20;100.00;103108.22;5000650;28;20454;-67
2021/12/18 00:33:11;;;;;;;2.15;0.77;;;;;;;9.22;100.00;103109.53;5007085;28;20034;-67
2021/12/18 00:35:37;;;;;;;1.33;0.70;;;;;;;9.24;100.00;103103.88;5012642;28;20045;-67
2021/12/18 00:38:07;;;;;;;3.00;0.90;;;;;;;9.16;100.00;103101.78;5008634;23;20057;-66
2021/12/18 00:40:58;;;;;;;1.55;0.65;;;;;;;9.05;100.00;103099.25;4990729;28;20153;-67
2021/12/18 00:43:31;;;;;;;2.55;0.73;;;;;;;9.17;100.00;103103.41;4993622;28;20042;-67
2021/12/18 00:45:57;;;;;;;1.65;0.80;;;;;;;9.16;100.00;103101.78;4994452;28;20050;-68
2021/12/18 00:48:23;;;;;;;1.65;0.82;;;;;;;9.20;100.00;103105.53;4989554;28;20117;-66
2021/12/18 00:50:50;;;;;;;3.00;0.90;;;;;;;9.08;100.00;103111.28;4983861;28;20045;-67
2021/12/18 00:53:16;;;;;;;2.03;0.85;;;;;;;9.12;100.00;103114.22;4990194;28;20038;-67
2021/12/18 00:55:42;;;;;;;2.22;0.90;;;;;;;9.00;100.00;103099.25;4991817;28;20056;-67
2021/12/18 00:58:07;;;;;;;3.78;1.20;;;;;;;9.12;100.00;103108.84;4991658;28;20038;-67
2021/12/18 01:00:35;;;;;;;1.90;1.15;;;;;;;9.24;100.00;103109.25;4990612;28;20086;-68
2021/12/18 01:03:02;;;;;;;2.17;1.25;;;;;;;9.32;100.00;103111.31;4991054;28;20498;-67
2021/12/18 01:05:30;;;;;;;2.20;1.45;;;;;;;9.28;100.00;103104.91;4987879;28;20038;-67
2021/12/18 01:07:57;;;;;;;1.45;1.05;;;;;;;9.17;100.00;103111.47;4981566;28;20610;-68
2021/12/18 01:12:55;;;;;;;3.20;1.27;;;;;;;9.14;100.00;103109.38;4990422;28;20038;-68
2021/12/18 01:23:24;;;;;;;2.28;1.40;;;;;;;9.01;100.00;103106.25;4968671;28;20192;-67
2021/12/18 01:25:52;;;;;;;2.53;0.98;;;;;;;9.13;100.00;103102.38;4987062;28;20114;-68
2021/12/18 01:28:17;;;;;;;2.30;0.70;;;;;;;9.13;100.00;103110.44;4990514;28;20112;-67
2021/12/18 01:30:43;;;;;;;2.60;1.08;;;;;;;9.12;100.00;103106.16;4991840;28;20475;-68
2021/12/18 01:33:08;;;;;;;3.78;1.20;;;;;;;9.18;100.00;103115.75;4979061;28;20042;-66
2021/12/18 01:35:34;;;;;;;2.40;1.08;;;;;;;9.14;100.00;103099.41;4990920;28;20046;-67
2021/12/18 01:38:00;;;;;;;4.00;1.48;;;;;;;9.12;100.00;103095.41;4983006;28;20030;-67
2021/12/18 01:40:26;;;;;;;1.65;0.93;;;;;;;9.18;100.00;103097.75;4982527;28;20048;-67
2021/12/18 01:53:35;;;;;;;1.42;0.63;;;;;;;9.19;100.00;103090.50;4989604;28;20038;-67
2021/12/18 01:56:01;;;;;;;3.88;1.10;;;;;;;9.19;100.00;103082.44;4980047;28;20040;-67
2021/12/18 01:58:27;;;;;;;1.40;0.63;;;;;;;9.25;100.00;103084.78;4987661;28;20483;-66
2021/12/18 02:00:57;;;;;;;5.15;1.02;;;;;;;9.29;100.00;103085.00;4986667;28;20038;-67
2021/12/18 02:03:23;;;;;;;0.90;0.73;;;;;;;9.22;100.00;103073.78;4988863;28;20092;-67
2021/12/18 02:05:50;;;;;;;1.45;0.57;;;;;;;9.12;100.00;103090.03;4989974;28;20070;-67
2021/12/18 02:08:25;;;;;;;2.10;0.73;;;;;;;9.14;100.00;103080.59;4990706;28;20038;-66
2021/12/18 02:10:57;;;;;;;1.05;0.80;;;;;;;9.20;100.00;103082.13;4985946;28;20036;-66
2021/12/18 02:21:29;;;;;;;1.23;0.57;;;;;;;9.04;100.00;103080.69;4975921;28;20058;-67
2021/12/18 02:23:54;;;;;;;1.23;0.75;;;;;;;9.05;100.00;103080.41;4977119;28;20113;-66
2021/12/18 02:26:21;;;;;;;4.70;1.15;;;;;;;8.98;100.00;103074.56;4990924;28;20189;-66
2021/12/18 02:28:48;;;;;;;0.93;0.88;;;;;;;9.10;100.00;103077.66;5052003;23;20073;-69
2021/12/18 02:31:15;;;;;;;1.73;0.73;;;;;;;9.18;100.00;103072.75;4990820;28;20394;-69
2021/12/18 02:33:41;;;;;;;6.07;1.05;;;;;;;8.98;100.00;103073.78;4989702;28;20542;-69
2021/12/18 02:36:09;;;;;;;2.38;0.93;;;;;;;9.23;100.00;103086.16;4990679;28;20045;-69
2021/12/18 02:41:33;;;;;;;1.77;0.83;;;;;;;9.08;100.00;103074.47;4986098;28;20049;-69
2021/12/18 02:44:01;;;;;;;3.53;0.73;;;;;;;9.17;100.00;103071.16;4986371;28;20686;-69
2021/12/18 02:46:27;;;;;;;2.15;0.70;;;;;;;9.04;100.00;103070.75;4987513;28;20042;-69
2021/12/18 02:48:55;;;;;;;1.50;0.65;;;;;;;9.19;100.00;103074.38;4989807;28;20069;-70
2021/12/18 02:51:21;;;;;;;0.98;0.55;;;;;;;9.09;100.00;103069.91;4990178;28;20034;-69
2021/12/18 02:53:49;;;;;;;1.75;0.80;;;;;;;9.29;100.00;103068.88;4989579;28;20220;-69
2021/12/18 02:56:16;;;;;;;3.67;0.77;;;;;;;9.03;100.00;103066.47;4984240;28;20426;-69
2021/12/18 02:58:45;;;;;;;1.13;0.60;;;;;;;9.05;100.00;103063.50;4990896;28;20038;-69
2021/12/18 03:01:14;;;;;;;3.35;0.88;;;;;;;9.05;100.00;103058.91;4989345;28;20045;-69
2021/12/18 03:03:41;;;;;;;1.05;0.55;;;;;;;9.12;100.00;103063.16;4989400;28;20043;-69
2021/12/18 03:08:45;;;;;;;1.40;0.70;;;;;;;9.12;100.00;103057.78;4990507;28;20128;-69
2021/12/18 03:20:14;;;;;;;1.15;0.70;;;;;;;9.15;100.00;103043.75;4981651;28;20105;-69
2021/12/18 03:24:56;;;;;;;2.42;0.95;;;;;;;9.17;100.00;103034.34;4992926;28;20045;-69
2021/12/18 03:27:22;;;;;;;;;;;;;;;9.24;100.00;103037.47;4994176;28;20046;-69
2021/12/18 03:29:48;;;;;;;1.02;0.60;;;;;;;9.10;100.00;103039.22;4993530;28;19914;-69
2021/12/18 03:32:15;;;;;;;3.20;0.80;;;;;;;9.28;100.00;103029.63;4993189;28;20066;-69
2021/12/18 03:34:40;;;;;;;2.25;0.63;;;;;;;9.32;100.00;103036.03;4992706;28;20034;-69
2021/12/18 03:37:06;;;;;;;2.65;0.88;;;;;;;9.11;100.00;103030.09;4993329;28;20113;-69
2021/12/18 03:39:32;;;;;;;3.45;1.55;;;;;;;9.23;100.00;103035.88;4993348;28;20125;-69
2021/12/18 03:41:58;;;;;;;1.73;0.88;;;;;;;9.21;100.00;103039.94;4990285;28;20482;-69
2021/12/18 03:44:23;;;;;;;2.80;0.75;;;;;;;9.26;100.00;103032.59;4991989;28;20049;-69
2021/12/18 03:46:49;;;;;;;1.50;0.98;;;;;;;9.30;100.00;103030.94;4993279;28;20038;-69
2021/12/18 03:49:15;;;;;;;2.38;0.90;;;;;;;9.17;100.00;103028.97;4988704;28;20418;-70
2021/12/18 03:51:40;;;;;;;1.95;0.90;;;;;;;9.17;100.00;103022.78;4986927;28;20046;-69
2021/12/18 03:54:06;;;;;;;2.10;0.73;;;;;;;9.28;100.00;103022.38;4992440;28;20119;-70
2021/12/18 03:56:34;;;;;;;1.92;0.82;;;;;;;9.15;100.00;103016.88;4993158;28;20100;-69
2021/12/18 03:59:00;;;;;;;4.35;1.50;;;;;;;9.06;100.00;103017.50;4978390;28;20046;-69
2021/12/18 04:01:25;;;;;;;2.55;1.02;;;;;;;9.31;100.00;103015.63;4992512;28;20080;-69
2021/12/18 04:03:52;;;;;;;2.05;1.15;;;;;;;9.25;100.00;103019.47;4992458;28;20041;-69
2021/12/18 04:06:17;;;;;;;5.68;1.10;;;;;;;9.03;100.00;103015.41;4988287;28;20038;-69
2021/12/18 04:08:43;;;;;;;2.92;0.93;;;;;;;9.18;100.00;103013.59;4988074;28;20045;-69
2021/12/18 04:11:08;;;;;;;2.55;0.77;;;;;;;9.26;100.00;103023.75;4992173;28;20038;-69
2021/12/18 04:13:34;;;;;;;1.65;0.68;;;;;;;9.20;100.00;103008.75;4990224;28;20062;-69
2021/12/18 04:15:59;;;;;;;2.00;0.80;;;;;;;9.24;100.00;103015.97;4991595;28;20413;-69
2021/12/18 04:18:25;;;;;;;4.55;0.82;;;;;;;9.26;100.00;103010.28;4992298;28;20031;-70
2021/12/18 04:20:51;;;;;;;3.90;1.13;;;;;;;9.12;100.00;103014.78;4992457;28;20487;-69
2021/12/18 04:23:16;;;;;;;2.55;1.00;;;;;;;9.11;100.00;103003.22;4984272;28;20034;-69
2021/12/18 04:25:42;;;;;;;1.20;0.75;;;;;;;9.27;100.00;103003.84;4990960;28;20042;-69
2021/12/18 04:28:08;;;;;;;2.38;0.95;;;;;;;9.27;100.00;103011.91;4992543;28;20046;-69
2021/12/18 04:30:34;;;;;;;2.35;1.00;;;;;;;9.30;100.00;103008.63;4991140;28;20112;-69
2021/12/18 04:33:00;;;;;;;2.50;1.08;;;;;;;9.21;100.00;103005.00;5001782;28;20497;-69
2021/12/18 04:35:27;;;;;;;2.78;0.82;;;;;;;9.18;100.00;103006.34;4992098;28;20027;-69
2021/12/18 04:37:53;;;;;;;1.92;0.85;;;;;;;9.30;100.00;103000.56;4992466;28;20042;-69
2021/12/18 04:40:19;;;;;;;0.75;0.45;;;;;;;9.33;100.00;102997.31;4992541;28;20029;-69
2021/12/18 04:42:47;;;;;;;3.05;1.10;;;;;;;9.34;100.00;102999.72;4983633;28;20561;-69
2021/12/18 04:45:12;;;;;;;1.95;0.50;;;;;;;9.22;100.00;102993.94;4990550;28;20477;-69
2021/12/18 04:47:37;;;;;;;1.35;0.70;;;;;;;9.19;100.00;102996.41;4992497;28;20121;-69
2021/12/18 04:50:04;;;;;;;0.75;0.65;;;;;;;9.16;100.00;102995.09;4989373;28;20030;-69
2021/12/18 04:52:29;;;;;;;1.48;0.60;;;;;;;9.18;100.00;102992.09;4991541;28;20414;-69
2021/12/18 04:54:54;;;;;;;3.20;0.90;;;;;;;9.17;100.00;102994.00;4991314;28;20050;-69
2021/12/18 04:57:20;;;;;;;1.20;0.88;;;;;;;9.34;100.00;102988.97;4988089;28;20034;-69
2021/12/18 04:59:45;;;;;;;1.08;0.57;;;;;;;9.31;100.00;102996.81;4971087;28;20175;-69
2021/12/18 05:02:15;;;;;;;1.02;0.70;;;;;;;9.32;100.00;102993.00;4990090;28;20080;-69
2021/12/18 05:04:43;;;;;;;1.05;0.77;;;;;;;9.36;100.00;102985.97;4991156;28;20105;-69
2021/12/18 05:07:10;;;;;;;3.10;0.95;;;;;;;9.37;100.00;102980.31;4990188;28;20113;-69
2021/12/18 05:09:39;;;;;;;1.15;0.80;;;;;;;9.34;100.00;102985.47;4991474;28;20027;-69
2021/12/18 05:12:06;;;;;;;1.77;0.90;;;;;;;9.30;100.00;102987.13;4991205;28;20117;-69
2021/12/18 05:14:31;;;;;;;1.95;1.20;;;;;;;9.12;100.00;102980.63;4990455;28;20038;-69
2021/12/18 05:16:57;;;;;;;1.23;0.80;;;;;;;9.24;100.00;102980.22;4989229;28;20085;-68
2021/12/18 05:19:22;;;;;;;0.95;0.80;;;;;;;9.22;100.00;102980.50;4990097;28;20034;-68
2021/12/18 05:21:48;;;;;;;1.88;0.90;;;;;;;9.25;100.00;102968.38;4988006;28;20053;-68
2021/12/18 05:24:13;;;;;;;1.65;0.90;;;;;;;9.32;100.00;102982.25;4990977;28;20052;-69
2021/12/18 05:26:39;;;;;;;0.80;0.68;;;;;;;9.30;100.00;102989.81;4991468;28;20126;-68
2021/12/18 05:29:04;;;;;;;5.70;1.35;;;;;;;9.31;100.00;102986.81;4990780;28;20034;-68
2021/12/18 05:31:29;;;;;;;2.78;0.77;;;;;;;9.23;100.00;102974.06;4991700;28;20042;-68
2021/12/18 05:33:59;;;;;;;1.50;0.80;;;;;;;9.25;100.00;102981.81;4990593;28;20476;-68
2021/12/18 05:36:35;;;;;;;1.38;0.88;;;;;;;9.29;100.00;102980.16;5005853;28;20045;-68
2021/12/18 05:39:09;;;;;;;1.77;0.98;;;;;;;9.43;100.00;102972.97;4991158;28;20125;-68
2021/12/18 05:41:35;;;;;;;1.98;0.93;;;;;;;9.29;100.00;102964.03;4980163;28;20050;-68
2021/12/18 05:44:02;;;;;;;1.13;0.55;;;;;;;9.25;100.00;102971.06;4989974;28;20034;-69
2021/12/18 05:46:28;;;;;;;1.30;0.85;;;;;;;9.31;100.00;102967.22;4973969;28;20049;-68
2021/12/18 05:48:53;;;;;;;1.50;0.68;;;;;;;9.34;100.00;102969.34;4991252;28;20072;-69
2021/12/18 05:51:19;;;;;;;1.60;0.70;;;;;;;9.40;100.00;102962.81;4991316;28;20026;-69
2021/12/18 05:53:44;;;;;;;0.70;0.47;;;;;;;9.35;100.00;102968.25;4990363;28;20030;-69
2021/12/18 05:56:10;;;;;;;0.77;0.60;;;;;;;9.29;100.00;102978.25;4990571;28;20042;-69
2021/12/18 05:58:35;;;;;;;0.90;0.50;;;;;;;9.41;100.00;102967.06;4991274;28;20034;-69
2021/12/18 06:01:01;;;;;;;0.47;0.43;;;;;;;9.31;100.00;102959.16;4984018;28;20555;-69
2021/12/18 06:03:27;;;;;;;0.85;0.50;;;;;;;9.33;100.00;102965.06;4989857;28;20093;-69
2021/12/18 06:05:52;;;;;;;0.30;0.30;;;;;;;9.13;100.00;102968.00;4990641;28;20043;-69
2021/12/18 06:08:18;;;;;;;0.47;0.45;;;;;;;9.26;100.00;102965.41;4991060;28;20034;-69
2021/12/18 06:10:43;;;;;;;0.52;0.50;;;;;;;9.18;100.00;102965.22;4975155;28;20050;-69
2021/12/18 06:13:09;;;;;;;2.67;0.30;;;;;;;9.33;100.00;102970.44;4980097;28;20031;-69
2021/12/18 06:15:34;;;;;;;0.57;0.40;;;;;;;9.30;100.00;102965.63;4989797;28;20030;-69
2021/12/18 06:18:00;;;;;;;1.75;0.57;;;;;;;9.27;100.00;102977.75;4985121;28;20050;-69
2021/12/18 06:20:27;;;;;;;0.70;0.60;;;;;;;9.28;100.00;102960.53;4990842;28;20117;-69
2021/12/18 06:22:53;;;;;;;2.72;0.85;;;;;;;9.25;100.00;102957.63;4982761;28;20042;-69
2021/12/18 06:25:19;;;;;;;1.45;0.68;;;;;;;9.21;100.00;102953.91;4988669;28;20026;-69
2021/12/18 06:27:44;;;;;;;1.25;0.30;;;;;;;9.14;100.00;102953.47;4985493;28;20133;-69
2021/12/18 06:30:10;;;;;;;2.58;0.85;;;;;;;9.18;100.00;102957.97;4989499;28;20105;-69
2021/12/18 06:32:37;;;;;;;1.63;0.75;;;;;;;9.22;100.00;102956.31;4989509;28;20030;-69
2021/12/18 06:35:02;;;;;;;1.48;0.88;;;;;;;9.28;100.00;102959.72;4985590;28;20490;-69
2021/12/18 06:37:28;;;;;;;1.75;0.80;;;;;;;9.19;100.00;102964.97;4986398;28;20030;-69
2021/12/18 06:39:53;;;;;;;1.77;0.90;;;;;;;9.02;100.00;102964.59;4990107;28;20105;-69
2021/12/18 06:42:19;;;;;;;5.15;1.20;;;;;;;9.19;100.00;102964.16;4989584;28;20122;-69
2021/12/18 06:44:44;;;;;;;0.82;0.70;;;;;;;9.23;100.00;102968.69;4988329;28;20041;-69
2021/12/18 06:47:10;;;;;;;1.45;1.00;;;;;;;9.22;100.00;102960.88;4988384;28;20048;-69
2021/12/18 06:49:35;;;;;;;2.53;1.50;;;;;;;9.18;100.00;102967.91;4991930;28;20041;-69
2021/12/18 06:52:01;;;;;;;2.13;1.17;;;;;;;9.19;100.00;102967.66;4992037;28;20104;-69
2021/12/18 06:54:27;;;;;;;3.55;1.70;;;;;;;9.14;100.00;102975.75;4991255;28;20038;-69
2021/12/18 06:56:52;;;;;;;2.65;1.33;;;;;;;9.19;100.00;102973.03;4990934;28;20639;-69
2021/12/18 06:59:17;;;;;;;3.10;1.27;;;;;;;9.13;100.00;102973.38;4993936;28;20065;-69
2021/12/18 07:01:44;;;;;;;1.65;1.10;;;;;;;9.08;100.00;102971.53;4993008;28;20495;-69
2021/12/18 07:04:10;;;;;;;0.77;0.60;;;;;;;9.07;100.00;102973.44;4993314;28;20058;-69
2021/12/18 07:06:36;;;;;;;1.02;0.88;;;;;;;9.13;100.00;102976.06;4993249;28;20057;-69
2021/12/18 07:09:02;;;;;;;1.10;0.70;;;;;;;9.04;100.00;102973.19;4993102;28;20498;-69
2021/12/18 07:11:27;;;;;;;0.50;0.45;;;;;;;8.99;100.00;102973.25;4993119;28;20032;-69
2021/12/18 07:13:54;;;;;;;0.55;0.45;;;;;;;9.07;100.00;102976.13;4991995;28;20034;-69
2021/12/18 07:16:19;;;;;;;1.27;0.47;;;;;;;9.07;100.00;102978.81;4985661;28;20066;-69
2021/12/18 07:18:45;;;;;;;0.40;0.38;;;;;;;9.13;100.00;102978.75;4993624;28;20065;-69
2021/12/18 07:21:11;;;;;;;1.75;0.77;;;;;;;9.09;100.00;102965.88;4987827;28;20030;-69
2021/12/18 07:23:36;;;;;;;0.25;0.25;;;;;;;9.00;100.00;102974.88;4985674;28;20050;-69
2021/12/18 07:26:02;;;;;;;0.43;0.40;;;;;;;8.98;100.00;102967.06;4991956;28;20038;-69
2021/12/18 07:28:27;;;;;;;0.35;0.35;;;;;;;9.01;100.00;102969.19;4992877;28;20030;-69
2021/12/18 07:30:52;;;;;;;1.25;0.60;;;;;;;9.06;100.00;102961.06;4993779;28;20096;-69
2021/12/18 07:33:18;;;;;;;0.95;0.50;;;;;;;9.09;100.00;102965.06;4991329;28;20042;-69
2021/12/18 07:35:43;;;;;;;1.45;0.85;;;;;;;8.94;100.00;102965.25;4994020;28;20042;-69
2021/12/18 07:38:14;;;;;;;0.40;0.40;;;;;;;9.10;100.00;102969.34;4992768;28;20042;-69
2021/12/18 07:40:39;;;;;;;0.65;0.43;;;;;;;8.97;100.00;102973.56;4991369;28;20514;-69
2021/12/18 07:43:05;;;;;;;1.40;0.63;;;;;;;9.13;100.00;102960.72;4991105;28;20035;-69
2021/12/18 07:45:34;;;;;;;0.98;0.60;;;;;;;9.11;100.00;102957.53;4990210;28;20065;-69
2021/12/18 07:48:03;;;;;;;1.83;0.50;;;;;;;9.02;100.00;102964.59;4989156;28;20113;-69
2021/12/18 07:50:29;;;;;;;1.15;0.47;;;;;;;9.16;100.00;102962.84;4992736;28;20045;-69
2021/12/18 07:52:55;;;;;;;1.58;0.80;;;;;;;9.07;100.00;102962.69;4991458;28;20038;-69
2021/12/18 07:55:21;;;;;;;1.80;0.90;;;;;;;9.10;100.00;102963.97;4992903;28;20113;-69
2021/12/18 07:57:47;;;;;;;1.45;0.80;;;;;;;8.89;100.00;102951.88;4992518;28;20037;-69
2021/12/18 08:00:14;;;;;;;1.75;1.20;;;;;;;9.03;100.00;102961.66;4991698;28;20033;-69
2021/12/18 08:02:41;;;;;;;2.55;1.25;;;;;;;8.92;100.00;102965.53;4991621;28;20445;-69
2021/12/18 08:05:08;;;;;;;3.97;1.27;;;;;;;8.87;100.00;102959.41;4988269;28;20030;-69
2021/12/18 08:07:34;;;;;;;4.38;1.50;;;;;;;9.06;100.00;102973.69;4992266;28;20049;-69
2021/12/18 08:09:59;;;;;;;5.28;1.63;;;;;;;9.05;100.00;102970.22;4993138;28;20438;-69
2021/12/18 08:12:25;;;;;;;1.52;1.10;;;;;;;9.21;100.00;102953.91;4986220;28;20038;-69
2021/12/18 08:14:51;;;;;;;5.45;1.27;;;;;;;9.07;100.00;102959.19;4990148;28;20128;-69
2021/12/18 08:17:19;;;;;;;2.80;1.35;;;;;;;9.20;100.00;102958.47;4992254;28;20030;-69
2021/12/18 08:19:44;;;;;;;2.08;0.88;;;;;;;9.15;100.00;102955.06;4991396;28;20467;-69
2021/12/18 08:22:10;;;;;;;4.63;1.13;;;;;;;9.22;100.00;102947.44;4990059;28;20038;-69
2021/12/18 08:24:35;;;;;;;0.88;0.63;;;;;;;9.17;100.00;102947.50;4991813;28;20042;-69
2021/12/18 08:27:00;;;;;;;2.58;1.00;;;;;;;9.15;100.00;102952.38;4992439;28;20121;-69
2021/12/18 08:29:26;;;;;;;1.48;0.88;;;;;;;9.10;100.00;102954.03;4991468;28;20038;-69
2021/12/18 08:31:52;;;;;;;3.35;1.08;;;;;;;9.09;100.00;102941.69;4990961;28;20509;-69
2021/12/18 08:34:22;;;;;;;2.28;0.95;;;;;;;9.12;100.00;102947.59;4989145;28;20038;-70
2021/12/18 08:36:48;;;;;;;1.95;0.90;;;;;;;9.17;100.00;102952.88;5003489;23;20073;-74
2021/12/18 08:39:17;;;;;;;1.40;0.52;;;;;;;9.09;100.00;102957.81;5000214;28;20038;-74
2021/12/18 08:41:45;;;;;;;3.58;1.30;;;;;;;9.24;100.00;102958.69;5006779;28;20038;-75
2021/12/18 08:44:11;;;;;;;2.42;0.98;;;;;;;9.13;100.00;102946.47;5000729;28;20042;-75
2021/12/18 08:46:37;;;;;;;1.40;0.65;;;;;;;9.10;100.00;102954.03;4997898;28;20034;-74
2021/12/18 08:49:04;;;;;;;1.05;0.63;;;;;;;9.17;100.00;102948.31;4983617;28;20568;-74
2021/12/18 08:51:30;;;;;;;2.28;0.95;;;;;;;9.21;100.00;102954.72;4987356;28;20033;-74
2021/12/18 08:53:55;;;;;;;1.30;0.75;;;;;;;9.19;100.00;102948.84;4990910;28;20482;-74
2021/12/18 08:56:21;;;;;;;3.38;1.33;;;;;;;9.26;100.00;102945.78;4991982;28;20066;-74
2021/12/18 08:58:46;;;;;;;1.52;0.95;;;;;;;9.26;100.00;102943.09;4992845;28;20065;-75
2021/12/18 09:01:12;;;;;;;2.33;0.80;;;;;;;9.27;100.00;102937.41;4978753;28;20455;-74
2021/12/18 09:03:37;;;;;;;1.63;1.00;;;;;;;9.12;100.00;102934.16;4972214;28;20038;-74
2021/12/18 09:06:03;;;;;;;0.50;0.50;;;;;;;9.14;100.00;102932.75;4990638;28;20560;-74
2021/12/18 09:08:28;;;;;;;1.60;0.90;;;;;;;9.04;100.00;102940.94;4981355;28;20132;-75
2021/12/18 09:10:54;;;;;;;1.17;0.50;;;;;;;9.24;100.00;102931.81;4989987;28;20383;-75
2021/12/18 09:13:22;;;;;;;0.77;0.43;;;;;;;9.13;100.00;102931.16;4991471;28;20049;-74
2021/12/18 09:15:51;;;;;;;1.45;0.50;;;;;;;9.00;100.00;102929.19;4991800;28;20483;-74
2021/12/18 09:18:16;;;;;;;0.60;0.60;;;;;;;9.16;100.00;102925.19;4992174;28;20049;-75
2021/12/18 09:20:44;;;;;;;0.50;0.50;;;;;;;9.16;100.00;102935.94;4992150;28;20050;-74
2021/12/18 09:23:10;;;;;;;0.93;0.40;;;;;;;9.21;100.00;102927.03;4984345;28;20038;-75
2021/12/18 09:25:37;;;;;;;0.50;0.38;;;;;;;9.24;100.00;102929.94;4972774;28;20181;-74
2021/12/18 09:28:03;;;;;;;1.30;0.80;;;;;;;9.25;100.00;102926.19;4986991;28;20030;-76
2021/12/18 09:30:29;;;;;;;1.10;0.50;;;;;;;9.30;100.00;102926.09;4974239;28;20034;-75
2021/12/18 09:32:54;;;;;;;2.13;1.00;;;;;;;9.32;100.00;102933.88;4976066;28;20031;-75
2021/12/18 09:35:22;;;;;;;1.05;0.47;;;;;;;9.33;100.00;102930.09;4971552;28;20042;-74
2021/12/18 09:37:48;;;;;;;2.55;0.77;;;;;;;9.36;100.00;102935.69;4974832;28;20481;-75
2021/12/18 09:40:16;;;;;;;0.50;0.50;;;;;;;9.31;100.00;102930.38;4978305;28;20121;-75
2021/12/18 09:42:41;;;;;;;2.53;0.82;;;;;;;9.34;100.00;102923.63;4982112;28;20030;-74
2021/12/18 09:45:08;;;;;;;2.53;0.90;;;;;;;9.36;100.00;102924.13;4984266;28;20045;-74
2021/12/18 09:47:33;;;;;;;2.70;0.57;;;;;;;9.32;100.00;102925.81;4991376;28;20042;-74
2021/12/18 09:50:00;;;;;;;0.30;0.30;;;;;;;9.29;100.00;102921.78;4991107;28;20046;-75
2021/12/18 09:52:25;;;;;;;0.68;0.40;;;;;;;9.17;100.00;102915.25;4984951;28;20039;-75
2021/12/18 09:54:57;;;;;;;0.35;0.35;;;;;;;9.09;100.00;102912.13;4973648;28;20403;-75
2021/12/18 09:57:23;;;;;;;0.30;0.30;;;;;;;9.19;100.00;102918.47;4986523;28;20392;-75
2021/12/18 09:59:49;;;;;;;0.77;0.40;;;;;;;9.24;100.00;102913.81;4974642;28;20031;-75
2021/12/18 10:02:14;;;;;;;0.20;0.20;;;;;;;9.36;100.00;102918.75;4987561;28;20053;-74
2021/12/18 10:04:40;;;;;;;0.20;0.20;;;;;;;9.37;100.00;102923.06;4985814;28;20514;-74
2021/12/18 10:07:23;;;;;;;0.35;0.30;;;;;;;9.35;100.00;102912.56;4989435;28;20030;-74
2021/12/18 10:09:52;;;;;;;3.90;0.30;;;;;;;9.36;100.00;102908.81;4983577;28;20435;-75
2021/12/18 10:12:30;;;;;;;0.20;0.20;;;;;;;9.37;100.00;102906.94;4989737;28;20030;-75
2021/12/18 10:14:57;;;;;;;0.28;0.28;;;;;;;9.42;100.00;102896.91;4989605;28;20137;-75
2021/12/18 10:17:38;;;;;;;0.75;0.30;;;;;;;9.48;100.00;102908.38;4984564;28;20085;-74
2021/12/18 10:20:09;;;;;;;0.50;0.50;;;;;;;9.48;100.00;102900.31;4979680;28;20454;-76
2021/12/18 10:22:35;;;;;;;;;;;;;;;9.47;100.00;102896.00;4988406;28;20121;-75
2021/12/18 10:25:06;;;;;;;0.50;0.50;;;;;;;9.45;100.00;102900.88;4988817;28;20376;-74
2021/12/18 10:27:33;;;;;;;1.00;0.40;;;;;;;9.39;100.00;102884.00;4990104;28;20034;-75
2021/12/18 10:30:16;;;;;;;0.40;0.40;;;;;;;9.51;100.00;102879.00;4994348;28;20073;-75
2021/12/18 10:32:54;;;;;;;0.70;0.55;;;;;;;9.41;100.00;102875.66;4989855;28;20033;-76
2021/12/18 10:35:19;;;;;;;5.43;0.90;;;;;;;9.47;100.00;102874.47;4992966;28;20030;-75
2021/12/18 10:37:45;;;;;;;0.70;0.43;;;;;;;9.57;100.00;102877.84;4977821;28;20485;-76
2021/12/18 10:40:11;;;;;;;2.45;0.95;;;;;;;9.65;100.00;102873.69;4979545;28;20486;-74
2021/12/18 10:42:42;;;;;;;2.15;0.55;;;;;;;9.53;100.00;102873.31;4974161;28;20043;-75
2021/12/18 10:45:33;;;;;;;0.52;0.52;;;;;;;9.62;100.00;102871.59;4984772;28;20027;-74
2021/12/18 10:48:02;;;;;;;5.80;1.27;;;;;;;9.60;100.00;102868.38;4992342;28;20026;-75
2021/12/18 10:51:01;;;;;;;1.92;1.38;;;;;;;9.69;100.00;102869.31;4992286;28;20667;-74
2021/12/18 10:53:31;;;;;;;2.60;1.35;;;;;;;9.58;100.00;102857.13;4976032;28;20137;-75
2021/12/18 10:56:02;;;;;;;3.20;1.23;;;;;;;9.57;100.00;102858.19;4979568;28;20041;-76
2021/12/18 10:58:35;;;;;;;2.97;1.55;;;;;;;9.55;100.00;102847.75;4992412;28;20043;-77
2021/12/18 11:01:11;;;;;;;1.85;1.05;;;;;;;9.60;100.00;102846.88;4994478;28;20038;-76
2021/12/18 11:03:39;;;;;;;3.28;1.38;;;;;;;9.73;100.00;102843.41;4990739;28;20434;-77
2021/12/18 11:06:26;;;;;;;6.85;2.05;;;;;;;9.78;100.00;102849.50;4986308;28;20109;-76
2021/12/18 11:09:06;;;;;;;3.42;1.40;;;;;;;9.73;100.00;102840.72;4993775;28;20038;-76
2021/12/18 11:14:12;;;;;;;2.08;1.27;;;;;;;9.83;100.00;102829.81;4982160;28;20487;-75
2021/12/18 11:16:40;;;;;;;5.90;1.75;;;;;;;9.69;100.00;102829.75;4990277;28;20030;-76
2021/12/18 11:19:11;;;;;;;3.17;1.38;;;;;;;9.82;100.00;102830.88;4985688;28;20049;-76
2021/12/18 11:21:38;;;;;;;6.72;1.70;;;;;;;9.87;100.00;102822.75;4992338;28;20472;-75
2021/12/18 11:24:07;;;;;;;2.92;1.40;;;;;;;9.85;100.00;102828.38;4988798;28;20049;-75
2021/12/18 11:26:41;;;;;;;2.92;1.63;;;;;;;9.80;100.00;102815.03;4993502;28;20084;-75
2021/12/18 11:29:11;;;;;;;7.18;2.50;;;;;;;9.93;100.00;102816.94;4993694;28;20119;-75
2021/12/18 11:31:41;;;;;;;6.70;1.77;;;;;;;9.96;100.00;102815.56;4979356;28;20392;-76
2021/12/18 11:34:07;;;;;;;2.22;1.35;;;;;;;9.95;100.00;102814.75;4990962;28;20434;-75
2021/12/18 11:36:33;;;;;;;4.15;1.60;;;;;;;10.06;100.00;102818.06;4991220;28;20041;-76
2021/12/18 11:38:59;;;;;;;2.38;1.40;;;;;;;10.01;100.00;102807.38;4986216;28;20556;-75
2021/12/18 11:41:25;;;;;;;2.72;1.42;;;;;;;10.00;100.00;102800.41;4993390;28;20476;-75
2021/12/18 11:43:51;;;;;;;4.03;1.90;;;;;;;10.05;100.00;102794.94;4991690;28;20037;-75
2021/12/18 11:46:32;;;;;;;7.47;2.03;;;;;;;10.04;100.00;102790.66;4988846;28;20440;-77
2021/12/18 11:49:04;;;;;;;2.80;1.80;;;;;;;9.96;100.00;102786.78;4990657;28;20118;-76
2021/12/18 11:51:31;;;;;;;3.13;1.85;;;;;;;10.07;100.00;102784.66;4987789;28;20057;-76
2021/12/18 11:54:03;;;;;;;3.60;1.60;;;;;;;10.02;100.00;102787.47;4986722;28;20054;-75
2021/12/18 11:56:45;;;;;;;2.83;1.70;;;;;;;10.10;100.00;102786.00;4982041;28;20133;-75
2021/12/18 11:59:11;;;;;;;2.72;1.85;;;;;;;9.99;100.00;102777.28;4982132;28;20035;-77
2021/12/18 12:01:44;;;;;;;1.88;1.50;;;;;;;10.17;100.00;102779.13;4990495;28;20041;-79
2021/12/18 12:04:10;;;;;;;3.17;1.55;;;;;;;10.00;100.00;102784.28;4989598;28;20117;-76
2021/12/18 12:06:38;;;;;;;1.45;1.15;;;;;;;10.12;100.00;102771.16;4981069;28;20589;-76
2021/12/18 12:09:26;;;;;;;3.72;2.15;;;;;;;10.15;100.00;102772.44;4991779;28;20621;-76
2021/12/18 12:12:06;;;;;;;3.42;1.90;;;;;;;10.17;100.00;102775.63;4988988;28;20034;-75
2021/12/18 12:14:34;;;;;;;4.05;1.88;;;;;;;10.24;100.00;102771.44;4986476;28;20097;-76